LHSM/SOB METAR and TAF weather

Enter ICAO airport designator
Station Type Date Time Source
LHSM METAR 2019/12/08 03:15 UTC NOAA

LHSM 080315Z AUTO VRB02KT 0450 R16/0600N FG VV001 M01/M01 Q1020


Station Type Date Time Source
LHSM Decoded METAR 2019/12/08 03:15 UTC NOAA

Station name not available
Dec 07, 2019 - 10:15 PM EST / 2019.12.08 0315 UTC
Wind: Variable at 2 MPH (2 KT):0
Visibility: less than 1 mile:0
Sky conditions: obscured
Weather: fog
Temperature: 30 F (-1 C)
Dew Point: 30 F (-1 C)
Relative Humidity: 100%
Pressure (altimeter): 30.12 in. Hg (1020 hPa)
ob: LHSM 080315Z AUTO VRB02KT 0450 R16/0600N FG VV001 M01/M01 Q1020
cycle: 3

Station Type Date Time Source
LHSM TAF UTC NOAA

Error!

Example: see airport list